sensor_id;sensor_type;location;lat;lon;timestamp;pressure;altitude;pressure_sealevel;temperature;humidity
54588;BME280;40484;50.198;19.576;2022-11-02T00:00:12;102102.31;;;15.42;58.60
54588;BME280;40484;50.198;19.576;2022-11-02T00:05:15;102105.66;;;15.51;58.24
54588;BME280;40484;50.198;19.576;2022-11-02T00:10:18;102110.50;;;15.53;58.00
54588;BME280;40484;50.198;19.576;2022-11-02T00:15:20;102116.56;;;15.31;58.51
54588;BME280;40484;50.198;19.576;2022-11-02T00:20:22;102114.23;;;15.27;58.55
54588;BME280;40484;50.198;19.576;2022-11-02T00:25:25;102122.85;;;15.24;58.64
54588;BME280;40484;50.198;19.576;2022-11-02T00:30:28;102122.78;;;14.97;59.35
54588;BME280;40484;50.198;19.576;2022-11-02T00:35:29;102125.69;;;14.84;59.74
54588;BME280;40484;50.198;19.576;2022-11-02T00:40:31;102119.59;;;14.74;60.08
54588;BME280;40484;50.198;19.576;2022-11-02T00:45:32;102124.19;;;14.72;60.18
54588;BME280;40484;50.198;19.576;2022-11-02T00:50:34;102121.70;;;14.78;59.97
54588;BME280;40484;50.198;19.576;2022-11-02T00:55:35;102135.27;;;14.69;60.12
54588;BME280;40484;50.198;19.576;2022-11-02T01:00:37;102130.95;;;14.94;59.34
54588;BME280;40484;50.198;19.576;2022-11-02T01:05:38;102121.09;;;14.87;59.58
54588;BME280;40484;50.198;19.576;2022-11-02T01:10:40;102124.59;;;14.70;60.08
54588;BME280;40484;50.198;19.576;2022-11-02T01:15:41;102126.91;;;14.76;59.85
54588;BME280;40484;50.198;19.576;2022-11-02T01:20:43;102129.58;;;14.61;60.30
54588;BME280;40484;50.198;19.576;2022-11-02T01:26:10;102127.98;;;14.85;59.61
54588;BME280;40484;50.198;19.576;2022-11-02T01:31:12;102130.52;;;14.92;59.51
54588;BME280;40484;50.198;19.576;2022-11-02T01:36:15;102132.59;;;14.84;59.91
54588;BME280;40484;50.198;19.576;2022-11-02T01:41:17;102124.02;;;14.87;59.63
54588;BME280;40484;50.198;19.576;2022-11-02T01:46:21;102129.03;;;14.81;59.68
54588;BME280;40484;50.198;19.576;2022-11-02T01:51:30;102133.23;;;14.87;59.74
54588;BME280;40484;50.198;19.576;2022-11-02T01:56:30;102132.09;;;14.68;60.41
54588;BME280;40484;50.198;19.576;2022-11-02T02:01:31;102132.77;;;14.80;60.16
54588;BME280;40484;50.198;19.576;2022-11-02T02:06:33;102128.38;;;14.80;60.09
54588;BME280;40484;50.198;19.576;2022-11-02T02:11:37;102126.99;;;14.96;59.70
54588;BME280;40484;50.198;19.576;2022-11-02T02:27:19;102117.67;;;14.71;60.28
54588;BME280;40484;50.198;19.576;2022-11-02T02:38:03;102134.09;;;14.97;59.54
54588;BME280;40484;50.198;19.576;2022-11-02T02:43:09;102139.75;;;14.97;59.38
54588;BME280;40484;50.198;19.576;2022-11-02T02:48:18;102135.95;;;14.84;59.77
54588;BME280;40484;50.198;19.576;2022-11-02T02:53:22;102136.12;;;14.73;60.14
54588;BME280;40484;50.198;19.576;2022-11-02T02:58:26;102145.55;;;14.80;59.82
54588;BME280;40484;50.198;19.576;2022-11-02T03:03:28;102146.61;;;14.81;59.73
54588;BME280;40484;50.198;19.576;2022-11-02T03:08:30;102150.21;;;14.97;59.31
54588;BME280;40484;50.198;19.576;2022-11-02T03:13:34;102151.19;;;14.77;59.74
54588;BME280;40484;50.198;19.576;2022-11-02T03:18:53;102154.66;;;14.58;60.35
54588;BME280;40484;50.198;19.576;2022-11-02T03:29:08;102162.51;;;14.42;60.94
54588;BME280;40484;50.198;19.576;2022-11-02T03:34:28;102168.93;;;14.67;60.17
54588;BME280;40484;50.198;19.576;2022-11-02T03:39:52;102160.23;;;14.85;59.58
54588;BME280;40484;50.198;19.576;2022-11-02T03:44:55;102156.02;;;14.86;59.34
54588;BME280;40484;50.198;19.576;2022-11-02T03:49:57;102157.72;;;14.89;59.11
54588;BME280;40484;50.198;19.576;2022-11-02T03:55:19;102154.17;;;14.91;58.89
54588;BME280;40484;50.198;19.576;2022-11-02T04:00:23;102164.80;;;14.79;58.89
54588;BME280;40484;50.198;19.576;2022-11-02T04:05:32;102168.38;;;14.82;59.12
54588;BME280;40484;50.198;19.576;2022-11-02T04:10:34;102160.84;;;14.83;59.26
54588;BME280;40484;50.198;19.576;2022-11-02T04:15:35;102168.56;;;14.79;59.36
54588;BME280;40484;50.198;19.576;2022-11-02T04:20:37;102173.53;;;14.63;59.81
54588;BME280;40484;50.198;19.576;2022-11-02T04:25:38;102173.56;;;14.68;59.71
54588;BME280;40484;50.198;19.576;2022-11-02T04:30:40;102177.08;;;14.64;59.92
54588;BME280;40484;50.198;19.576;2022-11-02T04:35:41;102181.27;;;14.63;59.92
54588;BME280;40484;50.198;19.576;2022-11-02T04:40:43;102175.68;;;14.75;59.72
54588;BME280;40484;50.198;19.576;2022-11-02T04:45:45;102176.09;;;14.75;59.73
54588;BME280;40484;50.198;19.576;2022-11-02T04:50:46;102183.32;;;14.53;60.27
54588;BME280;40484;50.198;19.576;2022-11-02T04:56:12;102180.76;;;14.87;59.52
54588;BME280;40484;50.198;19.576;2022-11-02T05:01:15;102184.55;;;14.96;59.17
54588;BME280;40484;50.198;19.576;2022-11-02T05:06:18;102183.29;;;14.97;59.17
54588;BME280;40484;50.198;19.576;2022-11-02T05:11:19;102195.59;;;14.86;59.58
54588;BME280;40484;50.198;19.576;2022-11-02T05:16:21;102188.73;;;14.99;59.33
54588;BME280;40484;50.198;19.576;2022-11-02T05:21:22;102190.65;;;15.06;59.08
54588;BME280;40484;50.198;19.576;2022-11-02T05:26:24;102195.86;;;14.96;59.09
54588;BME280;40484;50.198;19.576;2022-11-02T05:31:25;102209.08;;;15.06;58.91
54588;BME280;40484;50.198;19.576;2022-11-02T05:36:27;102211.54;;;14.96;59.29
54588;BME280;40484;50.198;19.576;2022-11-02T05:41:28;102215.30;;;14.87;59.58
54588;BME280;40484;50.198;19.576;2022-11-02T05:46:30;102212.44;;;15.05;59.00
54588;BME280;40484;50.198;19.576;2022-11-02T05:51:31;102214.50;;;15.05;58.70
54588;BME280;40484;50.198;19.576;2022-11-02T05:56:33;102215.34;;;15.03;58.37
54588;BME280;40484;50.198;19.576;2022-11-02T06:01:35;102217.47;;;15.08;58.12
54588;BME280;40484;50.198;19.576;2022-11-02T06:06:36;102218.23;;;14.87;58.48
54588;BME280;40484;50.198;19.576;2022-11-02T06:11:38;102228.39;;;14.73;58.78
54588;BME280;40484;50.198;19.576;2022-11-02T06:16:40;102239.42;;;14.61;59.14
54588;BME280;40484;50.198;19.576;2022-11-02T06:21:41;102238.59;;;14.59;59.27
54588;BME280;40484;50.198;19.576;2022-11-02T06:26:43;102238.63;;;14.69;59.27
54588;BME280;40484;50.198;19.576;2022-11-02T06:31:46;102243.42;;;14.62;59.76
54588;BME280;40484;50.198;19.576;2022-11-02T06:36:47;102234.46;;;14.69;59.81
54588;BME280;40484;50.198;19.576;2022-11-02T06:42:16;102242.54;;;14.93;59.49
54588;BME280;40484;50.198;19.576;2022-11-02T06:47:17;102250.47;;;14.91;59.85
54588;BME280;40484;50.198;19.576;2022-11-02T06:52:19;102243.17;;;15.02;59.81
54588;BME280;40484;50.198;19.576;2022-11-02T06:57:21;102240.15;;;15.31;59.38
54588;BME280;40484;50.198;19.576;2022-11-02T07:02:22;102232.30;;;15.74;58.06
54588;BME280;40484;50.198;19.576;2022-11-02T07:07:24;102232.30;;;16.07;57.25
54588;BME280;40484;50.198;19.576;2022-11-02T07:12:26;102234.61;;;16.12;57.04
54588;BME280;40484;50.198;19.576;2022-11-02T07:17:27;102231.85;;;16.37;56.58
54588;BME280;40484;50.198;19.576;2022-11-02T07:22:29;102234.77;;;16.49;56.29
54588;BME280;40484;50.198;19.576;2022-11-02T07:27:31;102234.74;;;16.56;56.17
54588;BME280;40484;50.198;19.576;2022-11-02T07:32:39;102232.65;;;16.59;56.19
54588;BME280;40484;50.198;19.576;2022-11-02T07:37:41;102227.61;;;16.59;56.39
54588;BME280;40484;50.198;19.576;2022-11-02T07:42:44;102217.80;;;16.42;57.01
54588;BME280;40484;50.198;19.576;2022-11-02T07:47:47;102224.29;;;16.37;57.15
54588;BME280;40484;50.198;19.576;2022-11-02T07:52:53;102235.62;;;16.32;57.22
54588;BME280;40484;50.198;19.576;2022-11-02T07:57:56;102241.54;;;16.05;57.51
54588;BME280;40484;50.198;19.576;2022-11-02T08:02:59;102239.24;;;15.92;57.67
54588;BME280;40484;50.198;19.576;2022-11-02T08:08:15;102245.50;;;15.74;58.26
54588;BME280;40484;50.198;19.576;2022-11-02T08:13:41;102247.20;;;15.70;58.29
54588;BME280;40484;50.198;19.576;2022-11-02T08:18:42;102235.17;;;15.60;58.77
54588;BME280;40484;50.198;19.576;2022-11-02T08:23:44;102247.14;;;15.65;58.71
54588;BME280;40484;50.198;19.576;2022-11-02T08:28:46;102236.91;;;15.68;58.81
54588;BME280;40484;50.198;19.576;2022-11-02T08:33:47;102232.29;;;15.76;58.82
54588;BME280;40484;50.198;19.576;2022-11-02T08:38:49;102234.19;;;15.91;58.56
54588;BME280;40484;50.198;19.576;2022-11-02T08:43:50;102234.38;;;16.13;57.81
54588;BME280;40484;50.198;19.576;2022-11-02T08:48:52;102236.09;;;16.20;57.56
54588;BME280;40484;50.198;19.576;2022-11-02T08:53:53;102235.01;;;16.34;57.41
54588;BME280;40484;50.198;19.576;2022-11-02T08:58:55;102225.34;;;16.43;56.99
54588;BME280;40484;50.198;19.576;2022-11-02T09:03:56;102230.58;;;16.38;56.42
54588;BME280;40484;50.198;19.576;2022-11-02T09:08:58;102226.35;;;16.57;55.92
54588;BME280;40484;50.198;19.576;2022-11-02T09:13:59;102223.18;;;16.70;55.74
54588;BME280;40484;50.198;19.576;2022-11-02T09:19:01;102220.01;;;16.69;55.56
54588;BME280;40484;50.198;19.576;2022-11-02T09:24:02;102222.30;;;16.87;55.20
54588;BME280;40484;50.198;19.576;2022-11-02T09:29:04;102219.82;;;16.82;55.19
54588;BME280;40484;50.198;19.576;2022-11-02T09:34:05;102217.34;;;16.57;55.24
54588;BME280;40484;50.198;19.576;2022-11-02T09:39:07;102207.88;;;16.56;55.63
54588;BME280;40484;50.198;19.576;2022-11-02T09:44:25;102218.76;;;16.74;55.33
54588;BME280;40484;50.198;19.576;2022-11-02T09:49:54;102220.81;;;16.93;54.96
54588;BME280;40484;50.198;19.576;2022-11-02T09:54:57;102211.79;;;16.90;53.56
54588;BME280;40484;50.198;19.576;2022-11-02T10:00:00;102210.67;;;17.10;53.37
54588;BME280;40484;50.198;19.576;2022-11-02T10:05:17;102205.94;;;17.27;53.16
54588;BME280;40484;50.198;19.576;2022-11-02T10:20:40;102199.26;;;17.54;51.35
54588;BME280;40484;50.198;19.576;2022-11-02T10:25:38;102210.71;;;17.36;50.20
54588;BME280;40484;50.198;19.576;2022-11-02T10:30:42;102198.23;;;17.49;49.72
54588;BME280;40484;50.198;19.576;2022-11-02T10:47:08;102208.14;;;17.75;48.68
54588;BME280;40484;50.198;19.576;2022-11-02T10:52:09;102201.88;;;17.67;49.06
54588;BME280;40484;50.198;19.576;2022-11-02T10:57:11;102197.65;;;17.72;48.36
54588;BME280;40484;50.198;19.576;2022-11-02T11:02:13;102195.05;;;17.85;48.14
54588;BME280;40484;50.198;19.576;2022-11-02T11:07:25;102201.97;;;17.88;47.12
54588;BME280;40484;50.198;19.576;2022-11-02T11:12:29;102196.82;;;17.68;46.49
54588;BME280;40484;50.198;19.576;2022-11-02T11:17:38;102196.81;;;17.42;46.34
54588;BME280;40484;50.198;19.576;2022-11-02T11:22:40;102208.21;;;17.64;45.97
54588;BME280;40484;50.198;19.576;2022-11-02T11:27:46;102191.12;;;17.72;45.81
54588;BME280;40484;50.198;19.576;2022-11-02T11:32:46;102191.48;;;17.85;45.61
54588;BME280;40484;50.198;19.576;2022-11-02T11:37:53;102180.33;;;18.07;44.79
54588;BME280;40484;50.198;19.576;2022-11-02T11:42:55;102178.40;;;18.11;44.15
54588;BME280;40484;50.198;19.576;2022-11-02T11:48:23;102170.69;;;18.24;44.44
54588;BME280;40484;50.198;19.576;2022-11-02T11:58:52;102172.19;;;18.22;44.30
54588;BME280;40484;50.198;19.576;2022-11-02T12:03:58;102177.34;;;18.11;44.57
54588;BME280;40484;50.198;19.576;2022-11-02T12:14:28;102182.79;;;17.92;45.03
54588;BME280;40484;50.198;19.576;2022-11-02T12:30:01;102158.96;;;17.98;45.42
54588;BME280;40484;50.198;19.576;2022-11-02T12:51:25;102151.66;;;18.51;44.10
54588;BME280;40484;50.198;19.576;2022-11-02T12:56:33;102153.32;;;18.73;43.93
54588;BME280;40484;50.198;19.576;2022-11-02T13:01:34;102159.15;;;18.59;44.11
54588;BME280;40484;50.198;19.576;2022-11-02T13:06:39;102155.51;;;18.63;44.36
54588;BME280;40484;50.198;19.576;2022-11-02T13:11:45;102145.16;;;18.48;44.77
54588;BME280;40484;50.198;19.576;2022-11-02T13:21:54;102155.48;;;18.50;44.53
54588;BME280;40484;50.198;19.576;2022-11-02T13:26:56;102152.99;;;18.46;44.52
54588;BME280;40484;50.198;19.576;2022-11-02T13:37:37;102159.56;;;18.59;44.36
54588;BME280;40484;50.198;19.576;2022-11-02T13:42:53;102157.41;;;18.46;44.92
54588;BME280;40484;50.198;19.576;2022-11-02T13:48:14;102153.59;;;18.30;45.17
54588;BME280;40484;50.198;19.576;2022-11-02T13:53:20;102164.76;;;18.65;45.00
54588;BME280;40484;50.198;19.576;2022-11-02T13:58:32;102169.23;;;18.81;44.94
54588;BME280;40484;50.198;19.576;2022-11-02T14:03:56;102169.24;;;18.79;45.04
54588;BME280;40484;50.198;19.576;2022-11-02T14:08:59;102172.44;;;18.93;44.91
54588;BME280;40484;50.198;19.576;2022-11-02T14:14:25;102173.16;;;19.01;45.03
54588;BME280;40484;50.198;19.576;2022-11-02T14:19:31;102176.09;;;19.05;45.09
54588;BME280;40484;50.198;19.576;2022-11-02T14:40:11;102181.27;;;18.59;47.09
54588;BME280;40484;50.198;19.576;2022-11-02T14:45:20;102180.85;;;18.59;47.35
54588;BME280;40484;50.198;19.576;2022-11-02T14:50:20;102178.09;;;18.43;47.96
54588;BME280;40484;50.198;19.576;2022-11-02T14:55:26;102186.70;;;18.61;47.60
54588;BME280;40484;50.198;19.576;2022-11-02T15:00:36;102182.65;;;18.49;47.79
54588;BME280;40484;50.198;19.576;2022-11-02T15:05:38;102179.23;;;18.34;48.08
54588;BME280;40484;50.198;19.576;2022-11-02T15:10:42;102180.06;;;18.34;48.02
54588;BME280;40484;50.198;19.576;2022-11-02T15:26:23;102187.05;;;18.08;48.78
54588;BME280;40484;50.198;19.576;2022-11-02T15:31:22;102196.61;;;18.00;49.05
54588;BME280;40484;50.198;19.576;2022-11-02T15:36:37;102198.23;;;17.82;49.63
54588;BME280;40484;50.198;19.576;2022-11-02T16:03:17;102228.95;;;17.43;50.93
54588;BME280;40484;50.198;19.576;2022-11-02T16:13:23;102236.51;;;17.03;51.59
54588;BME280;40484;50.198;19.576;2022-11-02T16:18:35;102240.55;;;16.94;51.80
54588;BME280;40484;50.198;19.576;2022-11-02T16:23:39;102238.09;;;16.67;52.37
54588;BME280;40484;50.198;19.576;2022-11-02T16:28:40;102239.97;;;16.68;52.37
54588;BME280;40484;50.198;19.576;2022-11-02T16:33:44;102243.16;;;16.49;52.79
54588;BME280;40484;50.198;19.576;2022-11-02T16:38:54;102241.49;;;16.41;52.99
54588;BME280;40484;50.198;19.576;2022-11-02T16:43:52;102247.41;;;16.09;53.75
54588;BME280;40484;50.198;19.576;2022-11-02T16:49:15;102254.92;;;16.35;53.24
54588;BME280;40484;50.198;19.576;2022-11-02T16:59:31;102275.73;;;16.23;53.47
54588;BME280;40484;50.198;19.576;2022-11-02T17:04:59;102283.27;;;16.47;52.92
54588;BME280;40484;50.198;19.576;2022-11-02T17:10:02;102282.64;;;16.39;53.00
54588;BME280;40484;50.198;19.576;2022-11-02T17:15:21;102280.98;;;16.08;53.86
54588;BME280;40484;50.198;19.576;2022-11-02T17:20:21;102289.77;;;16.22;53.57
54588;BME280;40484;50.198;19.576;2022-11-02T17:35:43;102299.01;;;15.92;54.24
54588;BME280;40484;50.198;19.576;2022-11-02T17:40:40;102299.62;;;16.02;53.95
54588;BME280;40484;50.198;19.576;2022-11-02T17:45:42;102293.12;;;16.06;53.56
54588;BME280;40484;50.198;19.576;2022-11-02T17:50:44;102304.21;;;15.85;53.97
54588;BME280;40484;50.198;19.576;2022-11-02T17:55:47;102306.73;;;15.79;54.02
54588;BME280;40484;50.198;19.576;2022-11-02T18:00:48;102305.06;;;15.84;53.68
54588;BME280;40484;50.198;19.576;2022-11-02T18:05:51;102309.28;;;15.92;53.49
54588;BME280;40484;50.198;19.576;2022-11-02T18:10:52;102303.80;;;15.94;53.15
54588;BME280;40484;50.198;19.576;2022-11-02T18:15:54;102313.68;;;15.95;52.90
54588;BME280;40484;50.198;19.576;2022-11-02T18:20:55;102315.25;;;15.62;52.89
54588;BME280;40484;50.198;19.576;2022-11-02T18:26:49;102321.55;;;15.61;52.57
54588;BME280;40484;50.198;19.576;2022-11-02T18:31:50;102324.24;;;15.60;52.54
54588;BME280;40484;50.198;19.576;2022-11-02T18:36:52;102317.54;;;15.56;52.51
54588;BME280;40484;50.198;19.576;2022-11-02T18:41:53;102322.52;;;15.44;52.37
54588;BME280;40484;50.198;19.576;2022-11-02T18:46:55;102334.05;;;15.43;52.10
54588;BME280;40484;50.198;19.576;2022-11-02T18:51:58;102334.78;;;15.19;52.25
54588;BME280;40484;50.198;19.576;2022-11-02T18:57:00;102332.27;;;15.26;51.92
54588;BME280;40484;50.198;19.576;2022-11-02T19:02:02;102344.44;;;15.25;51.74
54588;BME280;40484;50.198;19.576;2022-11-02T19:07:06;102334.63;;;15.34;51.47
54588;BME280;40484;50.198;19.576;2022-11-02T19:12:46;102342.98;;;15.28;51.37
54588;BME280;40484;50.198;19.576;2022-11-02T19:17:48;102353.45;;;15.28;51.11
54588;BME280;40484;50.198;19.576;2022-11-02T19:22:53;102360.77;;;15.26;50.75
54588;BME280;40484;50.198;19.576;2022-11-02T19:27:55;102359.65;;;15.10;50.68
54588;BME280;40484;50.198;19.576;2022-11-02T19:33:21;102368.77;;;15.31;50.06
54588;BME280;40484;50.198;19.576;2022-11-02T19:38:23;102371.56;;;15.42;49.65
54588;BME280;40484;50.198;19.576;2022-11-02T19:43:28;102382.61;;;15.34;49.57
54588;BME280;40484;50.198;19.576;2022-11-02T19:48:29;102382.63;;;15.41;49.49
54588;BME280;40484;50.198;19.576;2022-11-02T19:53:32;102386.64;;;15.48;49.33
54588;BME280;40484;50.198;19.576;2022-11-02T19:58:34;102385.25;;;15.65;49.08
54588;BME280;40484;50.198;19.576;2022-11-02T20:03:35;102386.01;;;15.97;48.70
54588;BME280;40484;50.198;19.576;2022-11-02T20:08:37;102382.70;;;16.11;48.33
54588;BME280;40484;50.198;19.576;2022-11-02T20:13:40;102386.26;;;16.13;48.12
54588;BME280;40484;50.198;19.576;2022-11-02T20:18:44;102387.92;;;16.07;48.18
54588;BME280;40484;50.198;19.576;2022-11-02T20:23:46;102396.05;;;15.84;48.47
54588;BME280;40484;50.198;19.576;2022-11-02T20:28:48;102392.79;;;15.63;48.99
54588;BME280;40484;50.198;19.576;2022-11-02T20:33:49;102404.13;;;15.65;48.91
54588;BME280;40484;50.198;19.576;2022-11-02T20:38:51;102400.91;;;15.46;49.14
54588;BME280;40484;50.198;19.576;2022-11-02T20:43:54;102400.80;;;15.28;49.44
54588;BME280;40484;50.198;19.576;2022-11-02T20:48:56;102405.27;;;15.07;49.62
54588;BME280;40484;50.198;19.576;2022-11-02T20:53:59;102400.24;;;15.08;49.71
54588;BME280;40484;50.198;19.576;2022-11-02T20:59:00;102404.95;;;15.21;49.41
54588;BME280;40484;50.198;19.576;2022-11-02T21:04:02;102399.28;;;15.19;49.40
54588;BME280;40484;50.198;19.576;2022-11-02T21:09:03;102398.70;;;14.95;49.70
54588;BME280;40484;50.198;19.576;2022-11-02T21:14:30;102405.12;;;15.17;49.19
54588;BME280;40484;50.198;19.576;2022-11-02T21:19:31;102413.02;;;15.06;49.45
54588;BME280;40484;50.198;19.576;2022-11-02T21:24:33;102406.30;;;15.04;49.71
54588;BME280;40484;50.198;19.576;2022-11-02T21:29:34;102402.19;;;15.12;49.58
54588;BME280;40484;50.198;19.576;2022-11-02T21:34:36;102408.88;;;15.12;49.56
54588;BME280;40484;50.198;19.576;2022-11-02T21:39:38;102414.26;;;15.03;49.59
54588;BME280;40484;50.198;19.576;2022-11-02T21:44:39;102424.57;;;15.08;49.49
54588;BME280;40484;50.198;19.576;2022-11-02T21:49:41;102420.40;;;15.11;49.31
54588;BME280;40484;50.198;19.576;2022-11-02T21:54:42;102427.05;;;14.79;49.86
54588;BME280;40484;50.198;19.576;2022-11-02T21:59:44;102417.17;;;14.72;50.12
54588;BME280;40484;50.198;19.576;2022-11-02T22:04:45;102428.69;;;14.73;50.31
54588;BME280;40484;50.198;19.576;2022-11-02T22:09:49;102419.42;;;14.67;50.61
54588;BME280;40484;50.198;19.576;2022-11-02T22:14:50;102409.80;;;14.65;50.86
54588;BME280;40484;50.198;19.576;2022-11-02T22:19:52;102410.06;;;14.71;50.55
54588;BME280;40484;50.198;19.576;2022-11-02T22:24:53;102412.44;;;14.81;50.31
54588;BME280;40484;50.198;19.576;2022-11-02T22:29:55;102408.47;;;14.86;49.87
54588;BME280;40484;50.198;19.576;2022-11-02T22:34:56;102409.27;;;14.80;49.86
54588;BME280;40484;50.198;19.576;2022-11-02T22:39:58;102410.39;;;14.86;49.69
54588;BME280;40484;50.198;19.576;2022-11-02T22:44:59;102408.96;;;14.94;49.41
54588;BME280;40484;50.198;19.576;2022-11-02T22:50:01;102412.20;;;15.05;48.95
54588;BME280;40484;50.198;19.576;2022-11-02T22:55:02;102415.19;;;15.16;48.40
54588;BME280;40484;50.198;19.576;2022-11-02T23:00:04;102428.28;;;15.04;47.56
54588;BME280;40484;50.198;19.576;2022-11-02T23:05:30;102431.77;;;14.91;48.09
54588;BME280;40484;50.198;19.576;2022-11-02T23:10:32;102433.75;;;14.79;48.52
54588;BME280;40484;50.198;19.576;2022-11-02T23:16:14;102439.86;;;14.56;49.18
54588;BME280;40484;50.198;19.576;2022-11-02T23:21:21;102436.05;;;14.35;49.67
54588;BME280;40484;50.198;19.576;2022-11-02T23:26:22;102436.66;;;14.33;49.87
54588;BME280;40484;50.198;19.576;2022-11-02T23:31:24;102438.91;;;14.49;49.00
54588;BME280;40484;50.198;19.576;2022-11-02T23:37:05;102435.63;;;14.54;48.70
54588;BME280;40484;50.198;19.576;2022-11-02T23:42:31;102434.40;;;14.58;47.32
54588;BME280;40484;50.198;19.576;2022-11-02T23:47:33;102444.21;;;14.34;46.88
54588;BME280;40484;50.198;19.576;2022-11-02T23:53:03;102431.85;;;14.14;46.99
54588;BME280;40484;50.198;19.576;2022-11-02T23:58:44;102438.30;;;13.91;46.96
